createdAt,value
2023-10-03T00:01:22.668Z,30.52
2023-10-03T00:03:54.432Z,27.95
2023-10-03T00:06:23.912Z,30.02
2023-10-03T00:08:55.469Z,32.58
2023-10-03T00:11:24.850Z,35.38
2023-10-03T00:13:55.080Z,34.22
2023-10-03T00:16:24.237Z,29.23
2023-10-03T00:18:53.382Z,26.48
2023-10-03T00:21:22.624Z,27.25
2023-10-03T00:23:53.279Z,28.20
2023-10-03T00:26:23.460Z,28.60
2023-10-03T00:28:53.003Z,23.65
2023-10-03T00:31:23.043Z,26.95
2023-10-03T00:33:52.439Z,32.70
2023-10-03T00:36:26.089Z,25.95
2023-10-03T00:38:56.701Z,25.42
2023-10-03T00:41:26.404Z,25.05
2023-10-03T00:43:59.301Z,26.95
2023-10-03T00:46:31.061Z,30.75
2023-10-03T00:49:06.261Z,28.52
2023-10-03T00:51:36.492Z,23.20
2023-10-03T00:54:07.762Z,28.40
2023-10-03T00:56:37.517Z,27.70
2023-10-03T00:59:09.573Z,21.38
2023-10-03T01:01:39.810Z,30.02
2023-10-03T01:04:17.330Z,22.85
2023-10-03T01:06:47.338Z,29.50
2023-10-03T01:09:25.097Z,24.27
2023-10-03T01:11:54.700Z,31.55
2023-10-03T01:14:24.393Z,28.23
2023-10-03T01:16:54.018Z,32.50
2023-10-03T01:19:26.869Z,21.35
2023-10-03T01:21:56.028Z,20.55
2023-10-03T01:24:27.327Z,26.15
2023-10-03T01:26:58.253Z,25.77
2023-10-03T01:29:27.514Z,24.15
2023-10-03T01:31:56.771Z,20.73
2023-10-03T01:34:26.056Z,25.92
2023-10-03T01:36:55.256Z,24.67
2023-10-03T01:39:25.997Z,25.73
2023-10-03T01:41:55.273Z,20.63
2023-10-03T01:44:24.668Z,24.98
2023-10-03T01:46:54.366Z,25.17
2023-10-03T01:49:26.348Z,22.23
2023-10-03T01:51:55.699Z,26.38
2023-10-03T01:54:26.312Z,22.27
2023-10-03T01:56:57.723Z,23.08
2023-10-03T01:59:27.047Z,26.52
2023-10-03T02:01:56.380Z,24.05
2023-10-03T02:04:30.094Z,24.55
2023-10-03T02:06:59.709Z,26.50
2023-10-03T02:09:30.273Z,19.27
2023-10-03T02:12:00.636Z,22.20
2023-10-03T02:14:31.690Z,21.35
2023-10-03T02:17:00.978Z,21.20
2023-10-03T02:19:30.309Z,21.65
2023-10-03T02:22:00.574Z,22.45
2023-10-03T02:24:33.486Z,20.80
2023-10-03T02:27:07.313Z,21.67
2023-10-03T02:29:36.604Z,20.52
2023-10-03T02:32:09.082Z,23.42
2023-10-03T02:34:40.876Z,26.55
2023-10-03T02:37:10.165Z,19.38
2023-10-03T02:39:42.087Z,21.63
2023-10-03T02:42:11.394Z,18.58
2023-10-03T02:44:41.409Z,17.10
2023-10-03T02:47:11.813Z,19.05
2023-10-03T02:49:41.466Z,17.65
2023-10-03T02:52:11.288Z,17.40
2023-10-03T02:54:42.080Z,19.08
2023-10-03T02:57:11.221Z,19.75
2023-10-03T02:59:41.170Z,21.20
2023-10-03T03:02:12.470Z,18.17
2023-10-03T03:04:42.299Z,20.38
2023-10-03T03:07:12.308Z,18.02
2023-10-03T03:09:42.841Z,18.73
2023-10-03T03:12:12.148Z,23.60
2023-10-03T03:14:41.840Z,18.52
2023-10-03T03:17:15.504Z,15.18
2023-10-03T03:19:46.100Z,18.35
2023-10-03T03:22:17.155Z,17.45
2023-10-03T03:24:52.821Z,15.65
2023-10-03T03:27:27.368Z,18.45
2023-10-03T03:30:10.583Z,14.38
2023-10-03T03:32:39.881Z,17.10
2023-10-03T03:35:10.580Z,20.75
2023-10-03T03:37:41.345Z,19.08
2023-10-03T03:40:26.177Z,17.50
2023-10-03T03:42:55.292Z,16.42
2023-10-03T03:45:24.388Z,18.08
2023-10-03T03:47:53.754Z,16.05
2023-10-03T03:50:23.269Z,14.70
2023-10-03T03:52:53.000Z,21.58
2023-10-03T03:55:24.297Z,16.27
2023-10-03T03:57:53.587Z,15.80
2023-10-03T04:00:24.090Z,18.60
2023-10-03T04:02:53.538Z,14.25
2023-10-03T04:05:23.262Z,13.10
2023-10-03T04:07:52.590Z,14.43
2023-10-03T04:10:23.645Z,16.20
2023-10-03T04:12:52.885Z,14.93
2023-10-03T04:15:22.151Z,19.92
2023-10-03T04:17:51.582Z,14.70
2023-10-03T04:20:26.816Z,21.58
2023-10-03T04:22:56.544Z,17.83
2023-10-03T04:25:27.939Z,15.50
2023-10-03T04:27:58.393Z,16.38
2023-10-03T04:30:28.122Z,18.33
2023-10-03T04:32:58.438Z,16.77
2023-10-03T04:35:29.884Z,14.27
2023-10-03T04:37:59.427Z,14.63
2023-10-03T04:40:32.709Z,15.35
2023-10-03T04:43:06.737Z,16.55
2023-10-03T04:45:36.777Z,13.18
2023-10-03T04:48:06.978Z,14.18
2023-10-03T04:50:40.396Z,15.65
2023-10-03T04:53:15.474Z,18.77
2023-10-03T04:55:49.255Z,14.88
2023-10-03T04:58:19.348Z,22.35
2023-10-03T05:00:48.904Z,15.52
2023-10-03T05:03:20.845Z,17.90
2023-10-03T05:05:51.272Z,17.08
2023-10-03T05:08:20.567Z,14.45
2023-10-03T05:10:55.395Z,16.17
2023-10-03T05:13:24.647Z,17.25
2023-10-03T05:15:55.297Z,13.95
2023-10-03T05:18:24.775Z,14.98
2023-10-03T05:20:59.097Z,17.10
2023-10-03T05:23:28.415Z,13.50
2023-10-03T05:25:59.072Z,16.40
2023-10-03T05:28:28.341Z,17.63
2023-10-03T05:31:00.307Z,17.15
2023-10-03T05:33:29.660Z,17.13
2023-10-03T05:35:58.939Z,19.33
2023-10-03T05:38:28.188Z,17.50
2023-10-03T05:40:58.768Z,15.90
2023-10-03T05:43:27.954Z,14.90
2023-10-03T05:45:57.575Z,14.07
2023-10-03T05:48:26.941Z,12.07
2023-10-03T05:50:56.810Z,22.63
2023-10-03T05:53:26.523Z,17.90
2023-10-03T05:55:55.806Z,15.93
2023-10-03T05:58:28.029Z,17.40
2023-10-03T06:00:57.247Z,19.60
2023-10-03T06:03:26.792Z,20.60
2023-10-03T06:05:56.290Z,14.65
2023-10-03T06:08:25.622Z,15.80
2023-10-03T06:10:57.801Z,17.05
2023-10-03T06:13:28.486Z,16.08
2023-10-03T06:16:00.191Z,18.77
2023-10-03T06:18:29.582Z,17.52
2023-10-03T06:20:59.623Z,15.25
2023-10-03T06:23:29.215Z,14.32
2023-10-03T06:25:58.575Z,14.27
2023-10-03T06:28:29.849Z,18.77
2023-10-03T06:30:59.072Z,15.30
2023-10-03T06:33:29.369Z,16.33
2023-10-03T06:35:58.714Z,16.00
2023-10-03T06:38:28.412Z,15.70
2023-10-03T06:40:57.923Z,15.88
2023-10-03T06:43:28.409Z,14.82
2023-10-03T06:45:57.601Z,16.88
2023-10-03T06:48:26.765Z,17.15
2023-10-03T06:50:57.344Z,15.77
2023-10-03T06:53:26.643Z,16.85
2023-10-03T06:55:58.270Z,14.82
2023-10-03T06:58:29.558Z,16.88
2023-10-03T07:00:58.981Z,12.02
2023-10-03T07:03:28.388Z,15.38
2023-10-03T07:05:58.139Z,15.65
2023-10-03T07:08:28.074Z,13.70
2023-10-03T07:10:58.249Z,16.50
2023-10-03T07:13:28.882Z,14.38
2023-10-03T07:15:59.910Z,17.02
2023-10-03T07:18:29.140Z,21.85
2023-10-03T07:20:58.649Z,12.75
2023-10-03T07:23:28.244Z,17.17
2023-10-03T07:25:57.464Z,17.23
2023-10-03T07:28:28.039Z,20.27
2023-10-03T07:30:57.406Z,15.77
2023-10-03T07:33:26.809Z,17.73
2023-10-03T07:35:58.007Z,16.75
2023-10-03T07:38:29.788Z,16.13
2023-10-03T07:40:59.023Z,17.95
2023-10-03T07:43:29.913Z,20.98
2023-10-03T07:45:59.943Z,16.75
2023-10-03T07:48:30.970Z,16.38
2023-10-03T07:51:00.477Z,14.88
2023-10-03T07:53:31.059Z,18.67
2023-10-03T07:56:00.994Z,18.23
2023-10-03T07:58:33.904Z,13.05
2023-10-03T08:01:05.746Z,21.27
2023-10-03T08:03:35.696Z,19.08
2023-10-03T08:06:05.183Z,17.23
2023-10-03T08:08:35.167Z,19.75
2023-10-03T08:11:07.981Z,23.40
2023-10-03T08:13:40.488Z,25.20
2023-10-03T08:16:09.913Z,18.02
2023-10-03T08:18:47.587Z,23.85
2023-10-03T08:21:17.082Z,17.58
2023-10-03T08:23:52.815Z,19.25
2023-10-03T08:26:22.836Z,16.52
2023-10-03T08:29:05.324Z,22.23
2023-10-03T08:31:39.928Z,19.60
2023-10-03T08:34:11.957Z,17.00
2023-10-03T08:36:41.174Z,19.95
2023-10-03T08:39:13.734Z,17.02
2023-10-03T08:41:49.159Z,17.15
2023-10-03T08:44:21.424Z,20.08
2023-10-03T08:46:56.583Z,15.77
2023-10-03T08:49:39.282Z,16.38
2023-10-03T08:52:10.931Z,19.25
2023-10-03T08:54:40.580Z,18.95
2023-10-03T08:57:12.129Z,14.95
2023-10-03T08:59:42.696Z,20.13
2023-10-03T09:02:15.760Z,20.60
2023-10-03T09:04:45.715Z,15.00
2023-10-03T09:07:15.026Z,14.35
2023-10-03T09:09:46.521Z,15.93
2023-10-03T09:12:16.200Z,13.43
2023-10-03T09:14:54.593Z,15.57
2023-10-03T09:17:25.158Z,16.50
2023-10-03T09:19:54.369Z,14.23
2023-10-03T09:22:33.079Z,18.48
2023-10-03T09:25:02.316Z,16.75
2023-10-03T09:27:32.404Z,10.43
2023-10-03T09:30:11.313Z,12.23
2023-10-03T09:32:41.441Z,14.70
2023-10-03T09:35:11.972Z,12.95
2023-10-03T09:37:44.799Z,10.18
2023-10-03T09:40:19.097Z,8.35
2023-10-03T09:42:50.273Z,13.15
2023-10-03T09:45:26.193Z,17.80
2023-10-03T09:48:07.355Z,11.30
2023-10-03T09:50:37.305Z,12.70
2023-10-03T09:53:07.641Z,9.40
2023-10-03T09:55:42.474Z,11.55
2023-10-03T09:58:12.601Z,13.00
2023-10-03T10:00:52.222Z,10.75
2023-10-03T10:03:28.552Z,13.25
2023-10-03T10:06:15.119Z,14.68
2023-10-03T10:08:50.709Z,9.05
2023-10-03T10:11:23.829Z,14.95
2023-10-03T10:14:11.273Z,13.60
2023-10-03T10:17:15.445Z,13.40
2023-10-03T10:20:14.240Z,12.00
2023-10-03T10:23:21.377Z,11.43
2023-10-03T10:25:58.054Z,13.35
2023-10-03T10:28:29.183Z,11.77
2023-10-03T10:31:32.896Z,14.45
2023-10-03T10:34:31.981Z,10.40
2023-10-03T10:37:04.403Z,9.20
2023-10-03T10:40:22.819Z,8.88
2023-10-03T10:43:00.843Z,11.68
2023-10-03T10:45:39.078Z,11.13
2023-10-03T10:48:09.623Z,10.10
2023-10-03T10:51:11.779Z,10.02
2023-10-03T10:53:48.360Z,9.20
2023-10-03T10:56:17.963Z,8.25
2023-10-03T10:58:52.772Z,8.05
2023-10-03T11:01:22.542Z,11.95
2023-10-03T11:03:52.140Z,4.32
2023-10-03T11:06:24.647Z,4.63
2023-10-03T11:08:55.667Z,4.28
2023-10-03T11:11:36.504Z,4.60
2023-10-03T11:14:05.725Z,4.22
2023-10-03T11:16:34.865Z,2.97
2023-10-03T11:19:05.466Z,7.25
2023-10-03T11:21:34.943Z,4.90
2023-10-03T11:24:15.746Z,6.18
2023-10-03T11:26:51.003Z,4.50
2023-10-03T11:29:39.765Z,4.32
2023-10-03T11:32:21.128Z,3.75
2023-10-03T11:34:50.581Z,2.80
2023-10-03T11:37:41.289Z,4.88
2023-10-03T11:40:15.584Z,7.63
2023-10-03T11:42:55.404Z,4.28
2023-10-03T11:45:30.424Z,4.65
2023-10-03T11:48:09.202Z,6.10
2023-10-03T11:50:40.934Z,3.55
2023-10-03T11:53:11.158Z,13.48
2023-10-03T11:55:43.430Z,6.78
2023-10-03T11:58:13.629Z,5.05
2023-10-03T12:00:45.793Z,4.20
2023-10-03T12:03:15.813Z,10.38
2023-10-03T12:05:46.970Z,7.05
2023-10-03T12:08:16.177Z,8.35
2023-10-03T12:10:46.896Z,9.48
2023-10-03T12:13:16.860Z,2.63
2023-10-03T12:15:47.342Z,6.18
2023-10-03T12:18:17.686Z,1.88
2023-10-03T12:20:47.146Z,4.85
2023-10-03T12:23:17.022Z,5.75
2023-10-03T12:25:47.628Z,9.82
2023-10-03T12:28:18.396Z,2.85
2023-10-03T12:30:47.517Z,1.83
2023-10-03T12:33:17.834Z,2.33
2023-10-03T12:35:47.699Z,6.63
2023-10-03T12:38:17.858Z,4.88
2023-10-03T12:40:49.731Z,3.63
2023-10-03T12:43:19.028Z,6.25
2023-10-03T12:45:48.989Z,4.65
2023-10-03T12:48:18.820Z,0.98
2023-10-03T12:50:49.138Z,3.22
2023-10-03T12:53:18.387Z,1.27
2023-10-03T12:55:50.474Z,10.23
2023-10-03T12:58:23.805Z,5.43
2023-10-03T13:00:54.013Z,4.95
2023-10-03T13:03:24.055Z,7.20
2023-10-03T13:05:57.295Z,4.70
2023-10-03T13:08:27.817Z,7.93
2023-10-03T13:11:02.717Z,10.32
2023-10-03T13:13:33.581Z,6.28
2023-10-03T13:16:04.012Z,6.15
2023-10-03T13:18:34.298Z,5.35
2023-10-03T13:21:05.195Z,8.45
2023-10-03T13:23:35.517Z,3.65
2023-10-03T13:26:06.488Z,5.00
2023-10-03T13:28:36.950Z,4.10
2023-10-03T13:31:07.436Z,4.57
2023-10-03T13:33:39.153Z,8.18
2023-10-03T13:36:10.085Z,6.25
2023-10-03T13:38:40.985Z,7.85
2023-10-03T13:41:13.020Z,2.40
2023-10-03T13:43:43.648Z,2.40
2023-10-03T13:46:14.518Z,1.88
2023-10-03T13:48:45.639Z,2.17
2023-10-03T13:51:16.342Z,7.25
2023-10-03T13:53:46.819Z,3.08
2023-10-03T13:56:19.806Z,1.42
2023-10-03T13:58:51.321Z,4.90
2023-10-03T14:01:23.032Z,6.75
2023-10-03T14:03:53.459Z,3.72
2023-10-03T14:06:27.830Z,1.27
2023-10-03T14:08:58.913Z,2.72
2023-10-03T14:11:31.235Z,6.47
2023-10-03T14:14:01.893Z,8.02
2023-10-03T14:16:31.217Z,3.95
2023-10-03T14:19:01.766Z,6.78
2023-10-03T14:21:45.821Z,4.75
2023-10-03T14:24:17.896Z,3.40
2023-10-03T14:26:49.977Z,11.23
2023-10-03T14:29:22.079Z,7.00
2023-10-03T14:31:51.505Z,6.05
2023-10-03T14:34:20.777Z,5.22
2023-10-03T14:36:49.959Z,4.43
2023-10-03T14:39:25.994Z,10.65
2023-10-03T14:41:59.323Z,9.45
2023-10-03T14:44:28.967Z,4.97
2023-10-03T14:46:58.694Z,7.20
2023-10-03T14:49:30.353Z,7.72
2023-10-03T14:51:59.812Z,5.03
2023-10-03T14:54:29.065Z,5.63
2023-10-03T14:56:59.936Z,6.47
2023-10-03T14:59:29.328Z,5.22
2023-10-03T15:01:58.489Z,7.28
2023-10-03T15:04:28.324Z,7.65
2023-10-03T15:06:58.836Z,6.68
2023-10-03T15:09:32.437Z,14.18
2023-10-03T15:12:03.263Z,14.30
2023-10-03T15:14:32.565Z,8.88
2023-10-03T15:17:02.301Z,6.00
2023-10-03T15:19:35.166Z,6.15
2023-10-03T15:22:05.220Z,8.35
2023-10-03T15:24:36.018Z,9.38
2023-10-03T15:27:07.097Z,5.50
2023-10-03T15:29:36.604Z,7.43
2023-10-03T15:32:06.727Z,6.97
2023-10-03T15:34:38.508Z,11.13
2023-10-03T15:37:10.205Z,9.75
2023-10-03T15:39:40.475Z,12.52
2023-10-03T15:42:12.084Z,5.75
2023-10-03T15:44:51.228Z,6.95
2023-10-03T15:47:24.439Z,8.38
2023-10-03T15:49:53.971Z,7.20
2023-10-03T15:52:23.381Z,9.55
2023-10-03T15:54:55.166Z,7.47
2023-10-03T15:57:27.054Z,8.40
2023-10-03T15:59:56.639Z,7.53
2023-10-03T16:02:26.477Z,11.23
2023-10-03T16:04:56.606Z,5.25
2023-10-03T16:07:26.065Z,6.82
2023-10-03T16:09:55.394Z,8.13
2023-10-03T16:12:26.120Z,5.00
2023-10-03T16:14:55.410Z,5.05
2023-10-03T16:17:24.790Z,6.72
2023-10-03T16:19:54.048Z,3.25
2023-10-03T16:22:23.355Z,3.15
2023-10-03T16:24:53.562Z,3.80
2023-10-03T16:27:22.824Z,4.33
2023-10-03T16:29:54.776Z,6.37
2023-10-03T16:32:24.420Z,15.50
2023-10-03T16:34:53.613Z,4.20
2023-10-03T16:37:22.751Z,7.50
2023-10-03T16:39:51.914Z,6.80
2023-10-03T16:42:21.231Z,5.10
2023-10-03T16:46:00.694Z,5.97
2023-10-03T16:48:33.145Z,10.03
2023-10-03T16:51:03.147Z,6.30
2023-10-03T16:53:34.336Z,11.13
2023-10-03T16:56:03.742Z,11.37
2023-10-03T16:58:33.337Z,6.60
2023-10-03T17:01:03.010Z,10.63
2023-10-03T17:03:34.678Z,10.43
2023-10-03T17:06:04.790Z,8.07
2023-10-03T17:08:34.593Z,13.13
2023-10-03T17:11:06.842Z,13.40
2023-10-03T17:13:39.021Z,10.00
2023-10-03T17:16:08.679Z,7.50
2023-10-03T17:18:39.261Z,4.40
2023-10-03T17:21:09.261Z,7.77
2023-10-03T17:23:39.147Z,4.77
2023-10-03T17:26:08.779Z,2.97
2023-10-03T17:28:38.218Z,3.80
2023-10-03T17:31:07.698Z,4.67
2023-10-03T17:33:38.482Z,6.73
2023-10-03T17:36:08.036Z,4.13
2023-10-03T17:38:37.250Z,6.40
2023-10-03T17:41:07.884Z,8.97
2023-10-03T17:43:37.224Z,12.57
2023-10-03T17:46:06.417Z,6.97
2023-10-03T17:48:35.918Z,6.63
2023-10-03T17:55:17.288Z,9.47
2023-10-03T17:57:46.606Z,8.80
2023-10-03T18:00:18.315Z,3.10
2023-10-03T18:02:49.629Z,8.03
2023-10-03T18:05:20.002Z,7.90
2023-10-03T18:07:50.174Z,5.10
2023-10-03T18:10:23.771Z,5.93
2023-10-03T18:13:00.312Z,7.53
2023-10-03T18:15:30.881Z,4.10
2023-10-03T18:18:01.487Z,5.63
2023-10-03T18:20:33.306Z,3.90
2023-10-03T18:23:04.754Z,6.97
2023-10-03T18:25:39.550Z,3.43
2023-10-03T18:28:10.208Z,4.77
2023-10-03T18:30:40.617Z,5.07
2023-10-03T18:33:14.882Z,6.60
2023-10-03T18:35:44.561Z,6.07
2023-10-03T18:38:16.026Z,11.53
2023-10-03T18:40:47.974Z,8.20
2023-10-03T18:43:17.184Z,7.27
2023-10-03T18:45:57.430Z,15.50
2023-10-03T18:48:27.700Z,5.37
2023-10-03T18:51:02.679Z,7.70
2023-10-03T18:53:34.209Z,5.73
2023-10-03T18:56:05.701Z,13.77
2023-10-03T18:58:34.880Z,7.77
2023-10-03T19:01:04.136Z,5.80
2023-10-03T19:03:35.820Z,10.83
2023-10-03T19:06:10.227Z,8.63
2023-10-03T19:08:39.679Z,12.20
2023-10-03T19:11:10.547Z,10.67
2023-10-03T19:13:39.644Z,9.43
2023-10-03T19:16:15.873Z,11.83
2023-10-03T19:18:45.128Z,10.73
2023-10-03T19:21:14.967Z,13.77
2023-10-03T19:23:46.377Z,10.07
2023-10-03T19:26:17.413Z,4.43
2023-10-03T19:28:46.927Z,10.17
2023-10-03T19:31:19.844Z,9.87
2023-10-03T19:33:49.730Z,7.80
2023-10-03T19:36:21.116Z,7.10
2023-10-03T19:38:50.618Z,6.40
2023-10-03T19:41:21.610Z,8.43
2023-10-03T19:43:51.739Z,11.17
2023-10-03T19:46:22.549Z,10.17
2023-10-03T19:48:51.854Z,8.27
2023-10-03T19:51:21.495Z,4.40
2023-10-03T19:53:54.062Z,3.60
2023-10-03T19:56:25.210Z,10.40
2023-10-03T19:58:56.038Z,4.83
2023-10-03T20:01:26.897Z,3.10
2023-10-03T20:03:56.272Z,11.33
2023-10-03T20:06:26.645Z,2.80
2023-10-03T20:08:55.841Z,6.20
2023-10-03T20:11:26.434Z,7.63
2023-10-03T20:13:55.570Z,6.23
2023-10-03T20:16:25.657Z,8.57
2023-10-03T20:18:55.010Z,5.70
2023-10-03T20:21:24.865Z,4.50
2023-10-03T20:23:54.058Z,10.30
2023-10-03T20:26:23.403Z,2.93
2023-10-03T20:28:54.066Z,14.07
2023-10-03T20:31:24.960Z,7.83
2023-10-03T20:33:54.265Z,7.90
2023-10-03T20:36:23.695Z,6.90
2023-10-03T20:38:53.431Z,7.17
2023-10-03T20:41:22.919Z,7.73
2023-10-03T20:43:53.530Z,5.90
2023-10-03T20:46:22.740Z,4.37
2023-10-03T20:48:52.437Z,7.73
2023-10-03T20:51:22.670Z,6.43
2023-10-03T20:53:53.063Z,4.57
2023-10-03T20:56:22.722Z,7.63
2023-10-03T20:58:55.692Z,6.63
2023-10-03T21:01:25.369Z,7.70
2023-10-03T21:03:54.675Z,7.57
2023-10-03T21:06:23.888Z,2.87
2023-10-03T21:08:53.243Z,10.87
2023-10-03T21:11:25.981Z,3.07
2023-10-03T21:13:56.533Z,9.40
2023-10-03T21:16:25.650Z,5.30
2023-10-03T21:18:55.193Z,6.70
2023-10-03T21:21:24.289Z,3.87
2023-10-03T21:23:53.800Z,10.67
2023-10-03T21:26:22.968Z,5.63
2023-10-03T21:28:52.119Z,6.37
2023-10-03T21:31:22.683Z,3.77
2023-10-03T21:33:51.909Z,4.73
2023-10-03T21:36:21.853Z,6.40
2023-10-03T21:38:51.064Z,4.73
2023-10-03T21:41:20.468Z,8.07
2023-10-03T21:43:49.577Z,7.30
2023-10-03T21:46:18.784Z,8.83
2023-10-03T21:48:51.118Z,13.40
2023-10-03T21:51:20.516Z,8.17
2023-10-03T21:53:50.816Z,4.57
2023-10-03T21:56:20.048Z,4.13
2023-10-03T21:58:49.127Z,7.37
2023-10-03T22:01:18.364Z,7.57
2023-10-03T22:03:48.859Z,7.90
2023-10-03T22:06:19.901Z,6.77
2023-10-03T22:08:49.321Z,8.30
2023-10-03T22:11:21.468Z,4.53
2023-10-03T22:13:50.984Z,6.20
2023-10-03T22:16:20.265Z,7.43
2023-10-03T22:18:50.747Z,6.87
2023-10-03T22:21:20.168Z,6.70
2023-10-03T22:23:49.297Z,19.83
2023-10-03T22:26:18.436Z,9.13
2023-10-03T22:28:47.642Z,7.33
2023-10-03T22:31:18.224Z,7.50
2023-10-03T22:33:49.238Z,11.93
2023-10-03T22:36:22.419Z,8.77
2023-10-03T22:38:52.866Z,10.30
2023-10-03T22:41:24.221Z,14.60
2023-10-03T22:43:53.552Z,5.77
2023-10-03T22:46:22.860Z,5.43
2023-10-03T22:48:52.156Z,16.83
2023-10-03T22:51:22.758Z,5.77
2023-10-03T22:53:52.529Z,4.53
2023-10-03T22:56:25.931Z,5.33
2023-10-03T22:58:55.457Z,3.77
2023-10-03T23:01:24.790Z,5.90
2023-10-03T23:03:54.099Z,13.33
2023-10-03T23:06:24.781Z,6.73
2023-10-03T23:08:55.736Z,10.60
2023-10-03T23:11:25.779Z,15.90
2023-10-03T23:13:55.150Z,11.37
2023-10-03T23:16:24.217Z,4.17
2023-10-03T23:18:53.546Z,6.30
2023-10-03T23:21:24.110Z,11.37
2023-10-03T23:23:53.562Z,7.83
2023-10-03T23:26:22.732Z,6.93
2023-10-03T23:28:51.900Z,3.93
2023-10-03T23:31:21.477Z,9.87
2023-10-03T23:33:51.424Z,10.13
2023-10-03T23:36:21.839Z,7.37
2023-10-03T23:38:52.445Z,5.83
2023-10-03T23:41:21.828Z,4.73
2023-10-03T23:43:51.055Z,4.27
2023-10-03T23:46:22.953Z,5.77
2023-10-03T23:48:52.874Z,22.43
2023-10-03T23:51:22.079Z,10.57
2023-10-03T23:53:52.688Z,4.90
2023-10-03T23:56:22.478Z,6.07
2023-10-03T23:58:53.298Z,13.13
